sensor_id;sensor_type;location;lat;lon;timestamp;P1;durP1;ratioP1;P2;durP2;ratioP2
8333;SDS011;4204;43.004;23.052;2022-07-05T00:00:22;7.27;;;6.27;;
8333;SDS011;4204;43.004;23.052;2022-07-05T00:02:51;6.67;;;5.97;;
8333;SDS011;4204;43.004;23.052;2022-07-05T00:05:18;7.70;;;6.23;;
8333;SDS011;4204;43.004;23.052;2022-07-05T00:07:46;6.37;;;5.77;;
8333;SDS011;4204;43.004;23.052;2022-07-05T00:10:14;9.73;;;6.10;;
8333;SDS011;4204;43.004;23.052;2022-07-05T00:12:41;7.87;;;6.13;;
8333;SDS011;4204;43.004;23.052;2022-07-05T00:15:09;7.13;;;5.83;;
8333;SDS011;4204;43.004;23.052;2022-07-05T00:17:38;7.33;;;6.33;;
8333;SDS011;4204;43.004;23.052;2022-07-05T00:20:06;7.83;;;5.57;;
8333;SDS011;4204;43.004;23.052;2022-07-05T00:22:35;7.27;;;5.43;;
8333;SDS011;4204;43.004;23.052;2022-07-05T00:25:03;5.97;;;5.37;;
8333;SDS011;4204;43.004;23.052;2022-07-05T00:27:31;8.90;;;5.70;;
8333;SDS011;4204;43.004;23.052;2022-07-05T00:29:59;6.27;;;5.50;;
8333;SDS011;4204;43.004;23.052;2022-07-05T00:32:26;6.07;;;5.40;;
8333;SDS011;4204;43.004;23.052;2022-07-05T00:34:55;8.63;;;5.50;;
8333;SDS011;4204;43.004;23.052;2022-07-05T00:37:23;6.53;;;5.30;;
8333;SDS011;4204;43.004;23.052;2022-07-05T00:39:50;9.63;;;5.87;;
8333;SDS011;4204;43.004;23.052;2022-07-05T00:42:18;10.03;;;5.07;;
8333;SDS011;4204;43.004;23.052;2022-07-05T00:44:46;5.20;;;4.60;;
8333;SDS011;4204;43.004;23.052;2022-07-05T00:47:13;8.00;;;5.30;;
8333;SDS011;4204;43.004;23.052;2022-07-05T00:49:41;6.27;;;4.93;;
8333;SDS011;4204;43.004;23.052;2022-07-05T00:52:11;5.53;;;4.83;;
8333;SDS011;4204;43.004;23.052;2022-07-05T00:54:39;7.10;;;4.70;;
8333;SDS011;4204;43.004;23.052;2022-07-05T00:57:07;6.03;;;5.13;;
8333;SDS011;4204;43.004;23.052;2022-07-05T00:59:35;6.17;;;5.57;;
8333;SDS011;4204;43.004;23.052;2022-07-05T01:02:03;7.27;;;4.90;;
8333;SDS011;4204;43.004;23.052;2022-07-05T01:04:31;4.70;;;4.03;;
8333;SDS011;4204;43.004;23.052;2022-07-05T01:06:58;5.13;;;4.57;;
8333;SDS011;4204;43.004;23.052;2022-07-05T01:09:29;5.40;;;4.63;;
8333;SDS011;4204;43.004;23.052;2022-07-05T01:11:57;4.83;;;4.43;;
8333;SDS011;4204;43.004;23.052;2022-07-05T01:14:25;4.70;;;4.20;;
8333;SDS011;4204;43.004;23.052;2022-07-05T01:16:53;6.07;;;4.33;;
8333;SDS011;4204;43.004;23.052;2022-07-05T01:19:21;7.00;;;4.20;;
8333;SDS011;4204;43.004;23.052;2022-07-05T01:21:49;4.43;;;4.03;;
8333;SDS011;4204;43.004;23.052;2022-07-05T01:24:19;5.67;;;4.20;;
8333;SDS011;4204;43.004;23.052;2022-07-05T01:26:50;5.33;;;3.67;;
8333;SDS011;4204;43.004;23.052;2022-07-05T01:29:20;6.83;;;4.33;;
8333;SDS011;4204;43.004;23.052;2022-07-05T01:31:47;5.20;;;3.80;;
8333;SDS011;4204;43.004;23.052;2022-07-05T01:34:15;7.47;;;4.00;;
8333;SDS011;4204;43.004;23.052;2022-07-05T01:36:42;6.60;;;4.30;;
8333;SDS011;4204;43.004;23.052;2022-07-05T01:39:10;8.47;;;4.60;;
8333;SDS011;4204;43.004;23.052;2022-07-05T01:41:40;7.40;;;4.37;;
8333;SDS011;4204;43.004;23.052;2022-07-05T01:44:07;6.10;;;4.00;;
8333;SDS011;4204;43.004;23.052;2022-07-05T01:46:35;5.20;;;3.80;;
8333;SDS011;4204;43.004;23.052;2022-07-05T01:49:06;4.30;;;3.90;;
8333;SDS011;4204;43.004;23.052;2022-07-05T01:51:38;5.13;;;3.53;;
8333;SDS011;4204;43.004;23.052;2022-07-05T01:54:09;7.67;;;3.83;;
8333;SDS011;4204;43.004;23.052;2022-07-05T01:56:36;5.23;;;3.80;;
8333;SDS011;4204;43.004;23.052;2022-07-05T01:59:06;6.13;;;4.23;;
8333;SDS011;4204;43.004;23.052;2022-07-05T02:01:35;6.13;;;3.93;;
8333;SDS011;4204;43.004;23.052;2022-07-05T02:04:05;5.67;;;4.13;;
8333;SDS011;4204;43.004;23.052;2022-07-05T02:06:35;4.80;;;4.30;;
8333;SDS011;4204;43.004;23.052;2022-07-05T02:09:04;4.90;;;3.90;;
8333;SDS011;4204;43.004;23.052;2022-07-05T02:11:34;5.00;;;3.87;;
8333;SDS011;4204;43.004;23.052;2022-07-05T02:14:03;6.13;;;4.27;;
8333;SDS011;4204;43.004;23.052;2022-07-05T02:16:35;7.20;;;3.67;;
8333;SDS011;4204;43.004;23.052;2022-07-05T02:19:03;4.50;;;4.07;;
8333;SDS011;4204;43.004;23.052;2022-07-05T02:21:35;3.73;;;3.43;;
8333;SDS011;4204;43.004;23.052;2022-07-05T02:24:06;7.50;;;3.97;;
8333;SDS011;4204;43.004;23.052;2022-07-05T02:26:40;7.07;;;3.80;;
8333;SDS011;4204;43.004;23.052;2022-07-05T02:29:09;5.70;;;3.87;;
8333;SDS011;4204;43.004;23.052;2022-07-05T02:31:40;4.07;;;3.67;;
8333;SDS011;4204;43.004;23.052;2022-07-05T02:34:08;5.73;;;3.67;;
8333;SDS011;4204;43.004;23.052;2022-07-05T02:36:36;4.20;;;3.70;;
8333;SDS011;4204;43.004;23.052;2022-07-05T02:39:08;4.13;;;3.73;;
8333;SDS011;4204;43.004;23.052;2022-07-05T02:41:35;4.23;;;3.83;;
8333;SDS011;4204;43.004;23.052;2022-07-05T02:44:04;5.87;;;3.80;;
8333;SDS011;4204;43.004;23.052;2022-07-05T02:46:31;3.97;;;3.57;;
8333;SDS011;4204;43.004;23.052;2022-07-05T02:49:03;10.63;;;4.03;;
8333;SDS011;4204;43.004;23.052;2022-07-05T02:51:34;6.37;;;4.10;;
8333;SDS011;4204;43.004;23.052;2022-07-05T02:54:02;5.23;;;3.93;;
8333;SDS011;4204;43.004;23.052;2022-07-05T02:56:33;4.17;;;3.73;;
8333;SDS011;4204;43.004;23.052;2022-07-05T02:59:01;4.57;;;4.10;;
8333;SDS011;4204;43.004;23.052;2022-07-05T03:01:32;6.80;;;4.10;;
8333;SDS011;4204;43.004;23.052;2022-07-05T03:04:05;6.10;;;3.90;;
8333;SDS011;4204;43.004;23.052;2022-07-05T03:06:36;4.17;;;3.77;;
8333;SDS011;4204;43.004;23.052;2022-07-05T03:09:03;4.90;;;3.60;;
8333;SDS011;4204;43.004;23.052;2022-07-05T03:11:32;4.87;;;4.30;;
8333;SDS011;4204;43.004;23.052;2022-07-05T03:14:00;5.30;;;3.70;;
8333;SDS011;4204;43.004;23.052;2022-07-05T03:16:28;4.53;;;4.07;;
8333;SDS011;4204;43.004;23.052;2022-07-05T03:18:55;4.43;;;3.90;;
8333;SDS011;4204;43.004;23.052;2022-07-05T03:21:25;5.00;;;3.97;;
8333;SDS011;4204;43.004;23.052;2022-07-05T03:23:52;5.33;;;3.90;;
8333;SDS011;4204;43.004;23.052;2022-07-05T03:26:20;4.23;;;3.80;;
8333;SDS011;4204;43.004;23.052;2022-07-05T03:28:48;4.47;;;4.07;;
8333;SDS011;4204;43.004;23.052;2022-07-05T03:31:17;4.70;;;3.83;;
8333;SDS011;4204;43.004;23.052;2022-07-05T03:33:45;4.90;;;3.70;;
8333;SDS011;4204;43.004;23.052;2022-07-05T03:36:14;4.10;;;3.70;;
8333;SDS011;4204;43.004;23.052;2022-07-05T03:38:45;4.20;;;3.80;;
8333;SDS011;4204;43.004;23.052;2022-07-05T03:41:12;4.10;;;3.63;;
8333;SDS011;4204;43.004;23.052;2022-07-05T03:43:41;5.83;;;4.20;;
8333;SDS011;4204;43.004;23.052;2022-07-05T03:46:10;4.43;;;4.00;;
8333;SDS011;4204;43.004;23.052;2022-07-05T03:48:40;3.73;;;3.43;;
8333;SDS011;4204;43.004;23.052;2022-07-05T03:51:10;4.30;;;3.90;;
8333;SDS011;4204;43.004;23.052;2022-07-05T03:53:38;4.13;;;3.73;;
8333;SDS011;4204;43.004;23.052;2022-07-05T03:56:07;4.30;;;3.90;;
8333;SDS011;4204;43.004;23.052;2022-07-05T03:58:35;4.20;;;3.60;;
8333;SDS011;4204;43.004;23.052;2022-07-05T04:01:05;4.30;;;3.90;;
8333;SDS011;4204;43.004;23.052;2022-07-05T04:03:33;4.20;;;3.80;;
8333;SDS011;4204;43.004;23.052;2022-07-05T04:06:01;5.73;;;3.93;;
8333;SDS011;4204;43.004;23.052;2022-07-05T04:08:30;4.67;;;3.50;;
8333;SDS011;4204;43.004;23.052;2022-07-05T04:10:58;4.70;;;3.87;;
8333;SDS011;4204;43.004;23.052;2022-07-05T04:13:27;4.77;;;4.27;;
8333;SDS011;4204;43.004;23.052;2022-07-05T04:15:57;4.87;;;4.40;;
8333;SDS011;4204;43.004;23.052;2022-07-05T04:18:25;4.40;;;3.87;;
8333;SDS011;4204;43.004;23.052;2022-07-05T04:20:54;4.80;;;4.03;;
8333;SDS011;4204;43.004;23.052;2022-07-05T04:23:22;4.63;;;4.23;;
8333;SDS011;4204;43.004;23.052;2022-07-05T04:25:50;4.47;;;3.70;;
8333;SDS011;4204;43.004;23.052;2022-07-05T04:28:28;4.77;;;4.23;;
8333;SDS011;4204;43.004;23.052;2022-07-05T04:30:57;5.00;;;4.27;;
8333;SDS011;4204;43.004;23.052;2022-07-05T04:33:28;5.07;;;3.87;;
8333;SDS011;4204;43.004;23.052;2022-07-05T04:35:57;5.57;;;4.30;;
8333;SDS011;4204;43.004;23.052;2022-07-05T04:38:25;6.33;;;4.30;;
8333;SDS011;4204;43.004;23.052;2022-07-05T04:40:56;5.37;;;4.63;;
8333;SDS011;4204;43.004;23.052;2022-07-05T04:43:25;4.40;;;3.90;;
8333;SDS011;4204;43.004;23.052;2022-07-05T04:45:54;4.70;;;4.30;;
8333;SDS011;4204;43.004;23.052;2022-07-05T04:48:22;5.73;;;4.80;;
8333;SDS011;4204;43.004;23.052;2022-07-05T04:50:50;5.23;;;4.60;;
8333;SDS011;4204;43.004;23.052;2022-07-05T04:53:17;5.07;;;4.57;;
8333;SDS011;4204;43.004;23.052;2022-07-05T04:55:45;5.30;;;4.80;;
8333;SDS011;4204;43.004;23.052;2022-07-05T04:58:13;8.33;;;4.50;;
8333;SDS011;4204;43.004;23.052;2022-07-05T05:00:40;4.97;;;4.47;;
8333;SDS011;4204;43.004;23.052;2022-07-05T05:03:09;6.63;;;4.50;;
8333;SDS011;4204;43.004;23.052;2022-07-05T05:05:37;5.13;;;4.63;;
8333;SDS011;4204;43.004;23.052;2022-07-05T05:08:05;8.70;;;4.43;;
8333;SDS011;4204;43.004;23.052;2022-07-05T05:10:32;5.60;;;4.73;;
8333;SDS011;4204;43.004;23.052;2022-07-05T05:13:00;7.37;;;4.83;;
8333;SDS011;4204;43.004;23.052;2022-07-05T05:15:27;5.17;;;4.67;;
8333;SDS011;4204;43.004;23.052;2022-07-05T05:17:55;5.30;;;4.80;;
8333;SDS011;4204;43.004;23.052;2022-07-05T05:20:24;5.30;;;4.80;;
8333;SDS011;4204;43.004;23.052;2022-07-05T05:22:52;6.93;;;4.80;;
8333;SDS011;4204;43.004;23.052;2022-07-05T05:25:20;5.43;;;4.70;;
8333;SDS011;4204;43.004;23.052;2022-07-05T05:27:48;6.33;;;4.90;;
8333;SDS011;4204;43.004;23.052;2022-07-05T05:30:16;5.57;;;5.07;;
8333;SDS011;4204;43.004;23.052;2022-07-05T05:32:45;6.03;;;4.77;;
8333;SDS011;4204;43.004;23.052;2022-07-05T05:35:13;5.80;;;4.77;;
8333;SDS011;4204;43.004;23.052;2022-07-05T05:37:46;4.90;;;4.50;;
8333;SDS011;4204;43.004;23.052;2022-07-05T05:40:18;5.77;;;4.70;;
8333;SDS011;4204;43.004;23.052;2022-07-05T05:42:46;5.30;;;4.80;;
8333;SDS011;4204;43.004;23.052;2022-07-05T05:45:14;7.47;;;5.10;;
